createdAt,value
2022-11-15T00:01:57.958Z,13.18
2022-11-15T00:04:24.288Z,10.95
2022-11-15T00:06:50.541Z,12.23
2022-11-15T00:09:16.748Z,10.98
2022-11-15T00:11:42.949Z,13.02
2022-11-15T00:14:09.306Z,11.95
2022-11-15T00:16:35.499Z,12.85
2022-11-15T00:19:01.703Z,15.40
2022-11-15T00:21:28.198Z,12.73
2022-11-15T00:23:54.476Z,15.63
2022-11-15T00:26:20.670Z,14.27
2022-11-15T00:28:46.862Z,12.95
2022-11-15T00:31:13.811Z,10.27
2022-11-15T00:33:40.031Z,13.15
2022-11-15T00:36:07.566Z,12.25
2022-11-15T00:38:34.504Z,11.50
2022-11-15T00:41:06.238Z,11.95
2022-11-15T00:43:35.858Z,12.75
2022-11-15T00:46:03.199Z,12.40
2022-11-15T00:48:29.625Z,9.95
2022-11-15T00:50:55.844Z,11.73
2022-11-15T00:53:22.052Z,13.60
2022-11-15T00:55:48.258Z,14.40
2022-11-15T00:58:14.455Z,11.20
2022-11-15T01:00:40.767Z,12.35
2022-11-15T01:03:07.060Z,12.85
2022-11-15T01:05:33.257Z,13.98
2022-11-15T01:07:59.469Z,11.77
2022-11-15T01:10:26.708Z,13.18
2022-11-15T01:12:52.939Z,11.85
2022-11-15T01:15:19.205Z,11.90
2022-11-15T01:17:45.429Z,10.23
2022-11-15T01:20:11.828Z,13.02
2022-11-15T01:22:38.032Z,10.05
2022-11-15T01:25:04.387Z,11.63
2022-11-15T01:27:30.598Z,11.70
2022-11-15T01:29:56.786Z,12.95
2022-11-15T01:32:22.979Z,11.00
2022-11-15T01:34:49.179Z,12.23
2022-11-15T01:37:15.373Z,11.60
2022-11-15T01:39:41.545Z,11.50
2022-11-15T01:42:12.748Z,10.18
2022-11-15T01:44:41.391Z,14.45
2022-11-15T01:47:10.181Z,12.70
2022-11-15T01:49:38.811Z,14.77
2022-11-15T01:52:07.257Z,10.73
2022-11-15T01:54:33.517Z,10.63
2022-11-15T01:57:04.826Z,11.82
2022-11-15T01:59:31.203Z,12.75
2022-11-15T02:01:57.545Z,12.48
2022-11-15T02:04:25.664Z,13.70
2022-11-15T02:06:51.924Z,12.60
2022-11-15T02:09:18.453Z,12.55
2022-11-15T02:11:44.953Z,14.32
2022-11-15T02:14:12.570Z,14.48
2022-11-15T02:16:47.629Z,12.48
2022-11-15T02:19:13.818Z,13.52
2022-11-15T02:21:40.005Z,12.73
2022-11-15T02:24:06.146Z,11.63
2022-11-15T02:26:51.968Z,12.38
2022-11-15T02:29:33.870Z,11.90
2022-11-15T02:32:06.083Z,13.52
2022-11-15T02:34:51.426Z,11.40
2022-11-15T02:37:21.429Z,12.50
2022-11-15T02:39:56.704Z,13.45
2022-11-15T02:42:50.133Z,15.07
2022-11-15T02:45:21.246Z,13.00
2022-11-15T02:47:48.792Z,11.02
2022-11-15T02:50:17.907Z,10.93
2022-11-15T02:52:48.554Z,12.98
2022-11-15T02:55:30.253Z,10.60
2022-11-15T03:00:22.767Z,10.85
2022-11-15T03:02:57.537Z,8.48
2022-11-15T03:05:30.540Z,9.73
2022-11-15T03:08:16.969Z,10.68
2022-11-15T03:10:43.165Z,9.27
2022-11-15T03:13:12.355Z,11.75
2022-11-15T03:15:42.372Z,10.02
2022-11-15T03:18:16.861Z,11.57
2022-11-15T03:20:43.727Z,10.63
2022-11-15T03:23:10.870Z,9.27
2022-11-15T03:25:41.206Z,11.15
2022-11-15T03:28:09.819Z,9.98
2022-11-15T03:30:38.084Z,8.82
2022-11-15T03:33:04.870Z,10.95
2022-11-15T03:35:39.957Z,10.45
2022-11-15T03:38:09.038Z,11.65
2022-11-15T03:40:40.297Z,10.68
2022-11-15T03:43:11.206Z,9.70
2022-11-15T03:45:42.354Z,9.95
2022-11-15T03:48:12.695Z,8.18
2022-11-15T03:50:39.066Z,8.48
2022-11-15T03:53:05.398Z,10.38
2022-11-15T03:55:32.834Z,7.95
2022-11-15T03:58:00.008Z,9.77
2022-11-15T04:00:26.310Z,8.98
2022-11-15T04:02:52.501Z,7.75
2022-11-15T04:05:18.681Z,7.63
2022-11-15T04:07:44.888Z,8.60
2022-11-15T04:10:12.012Z,9.38
2022-11-15T04:12:41.442Z,7.38
2022-11-15T04:15:08.876Z,9.25
2022-11-15T04:17:36.530Z,9.07
2022-11-15T04:20:22.907Z,11.43
2022-11-15T04:23:08.133Z,8.85
2022-11-15T04:25:34.457Z,9.73
2022-11-15T04:28:00.839Z,10.10
2022-11-15T04:30:27.075Z,10.43
2022-11-15T04:32:53.300Z,8.93
2022-11-15T04:35:19.563Z,10.85
2022-11-15T04:37:49.227Z,8.35
2022-11-15T04:40:15.991Z,7.95
2022-11-15T04:42:43.435Z,9.38
2022-11-15T04:45:10.036Z,12.23
2022-11-15T04:47:36.402Z,10.38
2022-11-15T04:50:02.874Z,7.97
2022-11-15T04:52:29.218Z,10.63
2022-11-15T04:54:55.421Z,8.00
2022-11-15T04:57:21.693Z,9.43
2022-11-15T04:59:47.890Z,13.75
2022-11-15T05:02:14.113Z,10.25
2022-11-15T05:04:40.377Z,8.35
2022-11-15T05:07:06.715Z,8.80
2022-11-15T05:09:33.004Z,14.65
2022-11-15T05:11:59.190Z,10.10
2022-11-15T05:14:25.371Z,8.27
2022-11-15T05:16:51.578Z,7.63
2022-11-15T05:19:17.808Z,9.60
2022-11-15T05:21:44.079Z,9.30
2022-11-15T05:24:13.266Z,8.05
2022-11-15T05:26:39.504Z,7.97
2022-11-15T05:29:05.698Z,8.75
2022-11-15T05:31:31.925Z,7.80
2022-11-15T05:33:59.287Z,9.18
2022-11-15T05:36:28.297Z,8.10
2022-11-15T05:38:54.795Z,7.43
2022-11-15T05:41:22.453Z,9.57
2022-11-15T05:43:49.722Z,6.43
2022-11-15T05:46:15.958Z,6.90
2022-11-15T05:48:44.002Z,7.15
2022-11-15T05:51:10.275Z,7.93
2022-11-15T05:53:37.186Z,7.15
2022-11-15T05:56:04.323Z,7.75
2022-11-15T05:58:32.476Z,9.40
2022-11-15T06:00:58.760Z,8.10
2022-11-15T06:03:24.976Z,7.63
2022-11-15T06:05:51.317Z,7.72
2022-11-15T06:08:18.554Z,7.70
2022-11-15T06:10:44.741Z,7.15
2022-11-15T06:13:11.049Z,8.98
2022-11-15T06:15:37.326Z,8.18
2022-11-15T06:18:03.678Z,6.57
2022-11-15T06:20:30.540Z,7.28
2022-11-15T06:22:57.668Z,7.10
2022-11-15T06:25:23.986Z,7.97
2022-11-15T06:27:53.786Z,7.93
2022-11-15T06:30:20.263Z,6.93
2022-11-15T06:32:46.464Z,7.45
2022-11-15T06:35:12.710Z,6.88
2022-11-15T06:37:38.934Z,6.22
2022-11-15T06:40:05.601Z,5.05
2022-11-15T06:42:31.950Z,4.20
2022-11-15T06:44:58.256Z,4.45
2022-11-15T06:47:24.501Z,5.13
2022-11-15T06:49:50.816Z,4.57
2022-11-15T06:52:19.348Z,4.50
2022-11-15T06:54:45.701Z,5.75
2022-11-15T06:57:12.303Z,4.68
2022-11-15T06:59:40.649Z,3.53
2022-11-15T07:02:07.093Z,4.32
2022-11-15T07:04:34.879Z,3.38
2022-11-15T07:07:01.154Z,3.47
2022-11-15T07:09:27.771Z,5.93
2022-11-15T07:11:53.969Z,4.82
2022-11-15T07:14:20.189Z,3.67
2022-11-15T07:16:46.500Z,4.28
2022-11-15T07:19:12.683Z,4.30
2022-11-15T07:21:38.929Z,3.42
2022-11-15T07:24:05.278Z,4.60
2022-11-15T07:26:31.693Z,10.88
2022-11-15T07:28:58.127Z,4.85
2022-11-15T07:31:24.441Z,4.43
2022-11-15T07:33:50.646Z,2.67
2022-11-15T07:36:16.907Z,3.38
2022-11-15T07:38:43.312Z,4.30
2022-11-15T07:41:09.593Z,3.53
2022-11-15T07:43:36.317Z,2.92
2022-11-15T07:46:06.671Z,2.67
2022-11-15T07:48:43.271Z,3.70
2022-11-15T07:51:15.126Z,3.33
2022-11-15T07:53:41.840Z,3.00
2022-11-15T07:56:08.541Z,3.72
2022-11-15T07:58:34.811Z,3.05
2022-11-15T08:01:05.198Z,2.63
2022-11-15T08:03:31.763Z,3.00
2022-11-15T08:05:58.455Z,2.63
2022-11-15T08:08:24.749Z,2.40
2022-11-15T08:10:50.949Z,2.78
2022-11-15T08:13:17.479Z,3.53
2022-11-15T08:15:44.653Z,3.13
2022-11-15T08:18:12.682Z,2.80
2022-11-15T08:20:39.033Z,5.70
2022-11-15T08:23:06.266Z,2.83
2022-11-15T08:25:33.184Z,4.10
2022-11-15T08:28:00.729Z,3.38
2022-11-15T08:30:27.423Z,5.50
2022-11-15T08:32:54.199Z,4.65
2022-11-15T08:35:24.897Z,3.47
2022-11-15T08:37:55.421Z,2.38
2022-11-15T08:40:21.931Z,2.60
2022-11-15T08:42:48.404Z,2.70
2022-11-15T08:45:14.714Z,2.28
2022-11-15T08:47:40.918Z,4.25
2022-11-15T08:50:07.467Z,3.65
2022-11-15T08:52:33.854Z,3.63
2022-11-15T08:55:00.174Z,2.17
2022-11-15T08:57:29.224Z,4.60
2022-11-15T08:59:55.641Z,5.15
2022-11-15T09:02:22.010Z,3.78
2022-11-15T09:04:48.997Z,5.13
2022-11-15T09:07:15.245Z,3.17
2022-11-15T09:09:41.587Z,3.08
2022-11-15T09:12:08.499Z,4.07
2022-11-15T09:14:34.730Z,4.30
2022-11-15T09:17:01.128Z,2.55
2022-11-15T09:19:27.364Z,3.05
2022-11-15T09:21:53.593Z,3.50
2022-11-15T09:24:19.969Z,4.25
2022-11-15T09:26:46.207Z,3.33
2022-11-15T09:29:12.407Z,1.60
2022-11-15T09:31:38.598Z,2.45
2022-11-15T09:34:04.829Z,1.83
2022-11-15T09:36:31.136Z,4.60
2022-11-15T09:38:58.428Z,3.58
2022-11-15T09:41:36.317Z,3.33
2022-11-15T09:44:25.574Z,4.18
2022-11-15T09:46:57.885Z,2.95
2022-11-15T09:49:24.291Z,3.42
2022-11-15T09:51:51.982Z,2.03
2022-11-15T09:54:52.831Z,2.33
2022-11-15T09:57:16.190Z,4.43
2022-11-15T10:00:23.728Z,3.17
2022-11-15T10:02:54.607Z,1.98
2022-11-15T10:05:23.750Z,1.67
2022-11-15T10:08:08.596Z,2.95
2022-11-15T10:10:40.379Z,3.92
2022-11-15T10:13:13.888Z,3.80
2022-11-15T10:15:42.176Z,3.25
2022-11-15T10:18:29.462Z,3.33
2022-11-15T10:21:00.277Z,2.70
2022-11-15T10:23:27.218Z,2.13
2022-11-15T10:25:55.608Z,3.47
2022-11-15T10:28:31.778Z,2.25
2022-11-15T10:30:59.458Z,1.92
2022-11-15T10:33:32.713Z,2.25
2022-11-15T10:36:13.966Z,2.05
2022-11-15T10:38:48.999Z,1.02
2022-11-15T10:41:15.921Z,3.00
2022-11-15T10:43:42.220Z,2.67
2022-11-15T10:46:44.967Z,2.60
2022-11-15T10:49:12.551Z,1.42
2022-11-15T10:51:42.546Z,4.60
2022-11-15T10:54:13.772Z,2.08
2022-11-15T10:56:42.534Z,2.58
2022-11-15T10:59:16.610Z,3.80
2022-11-15T11:01:49.252Z,1.85
2022-11-15T11:04:15.481Z,4.32
2022-11-15T11:06:48.541Z,3.47
2022-11-15T11:09:33.944Z,3.08
2022-11-15T11:12:00.865Z,3.08
2022-11-15T11:14:34.276Z,1.67
2022-11-15T11:17:09.274Z,1.60
2022-11-15T11:19:35.521Z,3.95
2022-11-15T11:22:20.211Z,1.17
2022-11-15T11:24:59.895Z,1.73
2022-11-15T11:27:37.486Z,2.53
2022-11-15T11:30:03.641Z,1.67
2022-11-15T11:32:45.114Z,2.75
2022-11-15T11:37:40.471Z,1.90
2022-11-15T11:40:24.875Z,1.85
2022-11-15T11:43:00.135Z,3.92
2022-11-15T11:45:35.352Z,6.97
2022-11-15T11:48:15.294Z,2.35
2022-11-15T11:50:42.827Z,4.10
2022-11-15T11:53:11.841Z,3.30
2022-11-15T11:55:40.493Z,1.77
2022-11-15T11:58:36.098Z,2.13
2022-11-15T12:01:12.894Z,4.65
2022-11-15T12:03:41.934Z,2.00
2022-11-15T12:06:27.074Z,4.55
2022-11-15T12:09:02.087Z,3.35
2022-11-15T12:11:37.128Z,2.40
2022-11-15T12:14:06.710Z,2.83
2022-11-15T12:16:33.688Z,3.05
2022-11-15T12:19:01.109Z,1.60
2022-11-15T12:21:37.365Z,3.75
2022-11-15T12:24:07.560Z,2.60
2022-11-15T12:26:53.063Z,2.25
2022-11-15T12:29:23.580Z,2.50
2022-11-15T12:31:52.208Z,1.85
2022-11-15T12:34:21.171Z,1.67
2022-11-15T12:36:48.293Z,2.88
2022-11-15T12:39:15.505Z,5.30
2022-11-15T12:41:42.778Z,1.83
2022-11-15T12:44:12.960Z,4.82
2022-11-15T12:46:42.165Z,5.80
2022-11-15T12:49:23.785Z,6.07
2022-11-15T12:54:22.426Z,2.47
2022-11-15T12:57:17.538Z,4.40
2022-11-15T12:59:56.215Z,1.67
2022-11-15T13:02:23.439Z,3.33
2022-11-15T13:04:50.535Z,2.53
2022-11-15T13:07:35.346Z,4.22
2022-11-15T13:10:02.986Z,2.80
2022-11-15T13:12:29.146Z,2.15
2022-11-15T13:14:55.419Z,4.07
2022-11-15T13:17:24.569Z,2.50
2022-11-15T13:19:53.858Z,4.07
2022-11-15T13:22:38.646Z,4.68
2022-11-15T13:25:14.855Z,6.78
2022-11-15T13:27:41.412Z,3.17
2022-11-15T13:30:24.957Z,3.95
2022-11-15T13:32:51.952Z,4.65
2022-11-15T13:35:25.207Z,3.60
2022-11-15T13:37:52.094Z,3.90
2022-11-15T13:40:21.438Z,5.07
2022-11-15T13:42:47.630Z,2.60
2022-11-15T13:45:16.280Z,3.00
2022-11-15T13:47:42.660Z,3.08
2022-11-15T13:50:12.622Z,5.18
2022-11-15T13:52:41.762Z,3.38
2022-11-15T13:55:11.089Z,7.25
2022-11-15T13:57:43.723Z,5.38
2022-11-15T14:00:26.127Z,5.95
2022-11-15T14:02:52.631Z,2.65
2022-11-15T14:05:20.298Z,3.45
2022-11-15T14:07:55.719Z,6.55
2022-11-15T14:10:36.990Z,4.32
2022-11-15T14:13:03.963Z,4.85
2022-11-15T14:15:32.199Z,4.93
2022-11-15T14:17:58.978Z,4.22
2022-11-15T14:20:33.582Z,5.70
2022-11-15T14:23:06.975Z,6.70
2022-11-15T14:25:34.073Z,4.43
2022-11-15T14:28:09.705Z,3.95
2022-11-15T14:30:35.987Z,6.25
2022-11-15T14:33:02.278Z,4.57
2022-11-15T14:35:28.502Z,4.15
2022-11-15T14:37:54.749Z,4.13
2022-11-15T14:40:22.106Z,3.85
2022-11-15T14:42:49.893Z,5.13
2022-11-15T14:45:17.321Z,2.55
2022-11-15T14:47:43.719Z,4.80
2022-11-15T14:50:17.374Z,3.58
2022-11-15T14:52:43.749Z,4.85
2022-11-15T14:55:16.043Z,3.13
2022-11-15T14:57:42.285Z,4.05
2022-11-15T15:00:09.843Z,4.60
2022-11-15T15:02:36.351Z,9.50
2022-11-15T15:05:04.047Z,3.00
2022-11-15T15:07:30.381Z,3.60
2022-11-15T15:10:24.590Z,4.18
2022-11-15T15:12:43.302Z,4.05
2022-11-15T15:15:14.218Z,3.30
2022-11-15T15:17:40.424Z,6.13
2022-11-15T15:20:06.858Z,3.25
2022-11-15T15:22:33.293Z,4.35
2022-11-15T15:24:59.593Z,3.78
2022-11-15T15:27:25.844Z,4.35
2022-11-15T15:29:52.083Z,3.83
2022-11-15T15:32:18.282Z,3.10
2022-11-15T15:34:44.511Z,5.05
2022-11-15T15:37:25.313Z,4.00
2022-11-15T15:39:55.354Z,3.43
2022-11-15T15:42:21.943Z,5.63
2022-11-15T15:44:48.434Z,5.22
2022-11-15T15:47:16.173Z,4.15
2022-11-15T15:49:42.653Z,4.30
2022-11-15T15:52:08.893Z,4.35
2022-11-15T15:54:35.105Z,2.28
2022-11-15T15:57:01.404Z,3.60
2022-11-15T15:59:27.617Z,2.53
2022-11-15T16:01:53.835Z,3.03
2022-11-15T16:04:20.091Z,2.63
2022-11-15T16:06:46.414Z,2.63
2022-11-15T16:09:15.725Z,5.28
2022-11-15T16:11:43.260Z,3.83
2022-11-15T16:14:09.518Z,2.40
2022-11-15T16:16:36.675Z,3.33
2022-11-15T16:19:03.167Z,3.03
2022-11-15T16:21:29.348Z,4.60
2022-11-15T16:23:55.562Z,4.88
2022-11-15T16:26:22.899Z,3.97
2022-11-15T16:28:49.163Z,2.55
2022-11-15T16:31:15.498Z,3.08
2022-11-15T16:33:41.758Z,4.35
2022-11-15T16:36:16.270Z,4.82
2022-11-15T16:38:42.450Z,3.88
2022-11-15T16:41:08.742Z,3.13
2022-11-15T16:43:35.002Z,2.75
2022-11-15T16:46:12.436Z,4.03
2022-11-15T16:48:40.120Z,5.03
2022-11-15T16:51:06.398Z,5.53
2022-11-15T16:53:32.690Z,3.78
2022-11-15T16:55:58.936Z,3.35
2022-11-15T16:58:25.381Z,3.72
2022-11-15T17:00:55.531Z,5.32
2022-11-15T17:03:22.637Z,3.90
2022-11-15T17:05:49.370Z,5.68
2022-11-15T17:08:15.881Z,3.53
2022-11-15T17:10:42.891Z,6.28
2022-11-15T17:13:12.421Z,4.63
2022-11-15T17:15:38.771Z,4.32
2022-11-15T17:18:05.027Z,3.30
2022-11-15T17:20:31.892Z,4.38
2022-11-15T17:22:58.429Z,3.28
2022-11-15T17:25:24.675Z,4.88
2022-11-15T17:27:50.907Z,4.30
2022-11-15T17:30:18.581Z,3.55
2022-11-15T17:32:44.769Z,3.97
2022-11-15T17:35:15.533Z,3.17
2022-11-15T17:37:42.375Z,3.67
2022-11-15T17:40:08.931Z,3.65
2022-11-15T17:42:35.296Z,2.92
2022-11-15T17:45:06.541Z,3.28
2022-11-15T17:47:35.783Z,6.10
2022-11-15T17:50:02.113Z,3.70
2022-11-15T17:52:28.310Z,4.75
2022-11-15T17:54:54.502Z,4.22
2022-11-15T17:57:20.683Z,5.82
2022-11-15T17:59:48.640Z,4.85
2022-11-15T18:02:14.819Z,5.43
2022-11-15T18:04:41.104Z,5.57
2022-11-15T18:07:07.333Z,4.72
2022-11-15T18:09:33.547Z,6.38
2022-11-15T18:11:59.924Z,4.40
2022-11-15T18:14:26.580Z,4.70
2022-11-15T18:16:54.792Z,5.30
2022-11-15T18:19:21.069Z,6.78
2022-11-15T18:21:56.587Z,5.68
2022-11-15T18:24:24.080Z,9.73
2022-11-15T18:26:50.309Z,6.80
2022-11-15T18:29:16.677Z,6.43
2022-11-15T18:31:47.570Z,6.53
2022-11-15T18:34:14.152Z,7.65
2022-11-15T18:36:40.474Z,7.25
2022-11-15T18:39:06.706Z,7.70
2022-11-15T18:41:33.126Z,8.70
2022-11-15T18:44:00.738Z,5.35
2022-11-15T18:46:28.523Z,6.28
2022-11-15T18:48:55.137Z,5.63
2022-11-15T18:51:22.694Z,8.60
2022-11-15T18:53:51.943Z,5.75
2022-11-15T18:56:19.128Z,5.30
2022-11-15T18:58:46.261Z,5.85
2022-11-15T19:01:13.762Z,6.65
2022-11-15T19:03:41.417Z,5.93
2022-11-15T19:06:08.588Z,8.02
2022-11-15T19:08:35.765Z,7.07
2022-11-15T19:11:03.113Z,8.25
2022-11-15T19:13:29.334Z,9.38
2022-11-15T19:16:02.603Z,8.05
2022-11-15T19:18:29.263Z,9.27
2022-11-15T19:20:56.217Z,7.25
2022-11-15T19:23:23.197Z,8.63
2022-11-15T19:25:56.425Z,8.20
2022-11-15T19:28:22.690Z,8.65
2022-11-15T19:30:48.895Z,9.45
2022-11-15T19:33:15.125Z,8.32
2022-11-15T19:35:41.418Z,7.10
2022-11-15T19:38:08.044Z,7.63
2022-11-15T19:40:34.305Z,11.00
2022-11-15T19:43:00.480Z,8.82
2022-11-15T19:45:26.754Z,7.32
2022-11-15T19:47:53.032Z,11.25
2022-11-15T19:50:19.396Z,8.93
2022-11-15T19:52:45.716Z,9.95
2022-11-15T19:55:11.991Z,9.95
2022-11-15T19:57:38.662Z,8.38
2022-11-15T20:00:07.393Z,7.32
2022-11-15T20:02:33.906Z,7.35
2022-11-15T20:05:00.106Z,9.38
2022-11-15T20:07:26.368Z,10.00
2022-11-15T20:09:53.729Z,9.27
2022-11-15T20:12:19.964Z,9.10
2022-11-15T20:14:46.643Z,9.20
2022-11-15T20:17:13.775Z,10.02
2022-11-15T20:19:40.011Z,7.35
2022-11-15T20:22:06.198Z,8.18
2022-11-15T20:24:32.521Z,8.52
2022-11-15T20:26:58.710Z,11.27
2022-11-15T20:29:24.922Z,7.70
2022-11-15T20:31:51.148Z,10.82
2022-11-15T20:34:17.493Z,9.43
2022-11-15T20:36:43.713Z,8.20
2022-11-15T20:39:09.941Z,10.15
2022-11-15T20:41:36.143Z,9.45
2022-11-15T20:44:03.006Z,10.02
2022-11-15T20:46:29.261Z,10.48
2022-11-15T20:48:55.519Z,9.30
2022-11-15T20:51:21.797Z,10.23
2022-11-15T20:53:48.458Z,10.32
2022-11-15T20:56:16.261Z,11.07
2022-11-15T20:58:43.152Z,11.05
2022-11-15T21:01:10.952Z,9.63
2022-11-15T21:03:37.601Z,10.38
2022-11-15T21:06:03.887Z,9.23
2022-11-15T21:08:50.125Z,9.43
2022-11-15T21:11:34.847Z,9.70
2022-11-15T21:14:05.026Z,10.15
2022-11-15T21:16:34.608Z,10.63
2022-11-15T21:19:00.863Z,11.57
2022-11-15T21:21:27.051Z,10.73
2022-11-15T21:23:53.253Z,10.27
2022-11-15T21:26:19.510Z,9.63
2022-11-15T21:28:45.759Z,11.02
2022-11-15T21:31:12.002Z,11.43
2022-11-15T21:33:38.199Z,10.55
2022-11-15T21:36:04.444Z,9.50
2022-11-15T21:38:31.018Z,16.05
2022-11-15T21:40:57.568Z,9.88
2022-11-15T21:43:23.766Z,11.65
2022-11-15T21:45:56.275Z,10.32
2022-11-15T21:48:22.709Z,12.25
2022-11-15T21:50:58.723Z,10.98
2022-11-15T21:53:25.319Z,11.30
2022-11-15T21:55:51.763Z,13.35
2022-11-15T21:58:18.493Z,10.63
2022-11-15T22:01:03.504Z,13.18
2022-11-15T22:03:30.038Z,12.77
2022-11-15T22:05:56.387Z,10.05
2022-11-15T22:08:22.662Z,10.90
2022-11-15T22:10:49.407Z,8.80
2022-11-15T22:13:15.807Z,14.38
2022-11-15T22:15:44.512Z,11.20
2022-11-15T22:18:10.803Z,10.23
2022-11-15T22:20:44.514Z,9.10
2022-11-15T22:23:11.228Z,11.02
2022-11-15T22:25:37.490Z,9.82
2022-11-15T22:28:03.727Z,8.18
2022-11-15T22:30:29.954Z,12.10
2022-11-15T22:32:56.158Z,8.90
2022-11-15T22:35:22.377Z,10.90
2022-11-15T22:37:48.611Z,8.38
2022-11-15T22:40:14.853Z,9.35
2022-11-15T22:42:41.205Z,8.30
2022-11-15T22:45:07.598Z,9.73
2022-11-15T22:47:33.813Z,7.90
2022-11-15T22:50:00.077Z,7.78
2022-11-15T22:52:26.314Z,7.22
2022-11-15T22:54:52.660Z,7.32
2022-11-15T22:57:18.871Z,8.07
2022-11-15T22:59:45.130Z,8.40
2022-11-15T23:02:11.351Z,7.38
2022-11-15T23:04:37.575Z,8.05
2022-11-15T23:07:04.142Z,7.28
2022-11-15T23:09:30.421Z,7.70
2022-11-15T23:12:28.930Z,8.98
2022-11-15T23:14:55.173Z,7.47
2022-11-15T23:17:21.346Z,6.70
2022-11-15T23:19:47.606Z,7.43
2022-11-15T23:22:32.323Z,7.95
2022-11-15T23:24:59.548Z,7.65
2022-11-15T23:27:25.780Z,8.50
2022-11-15T23:30:10.555Z,8.75
2022-11-15T23:32:55.350Z,8.35
2022-11-15T23:35:21.633Z,7.78
2022-11-15T23:37:47.827Z,8.38
2022-11-15T23:40:14.067Z,9.27
2022-11-15T23:42:40.259Z,12.52
2022-11-15T23:45:06.772Z,9.73
2022-11-15T23:47:32.957Z,7.47
2022-11-15T23:49:59.168Z,8.40
2022-11-15T23:52:25.539Z,7.18
2022-11-15T23:54:51.826Z,9.00
2022-11-15T23:57:18.018Z,8.50
2022-11-15T23:59:44.267Z,9.88
